Terminal Aerodrome Forecast
Issued by NWS Cleveland, OH

Home | Current Version | Previous Version | Text Only | Print | Product List | Glossary On
Versions: 1 2 3 4 5 6 7 8 9 10 11 12 13 14 15 16 17 18 19 20 21 22 23 24 25 26
000
FTUS41 KCLE 251200 AAA
TAFTOL
TAF AMD
KTOL 251237Z 2513/2612 22008KT P6SM BKN035 OVC060
     FM251400 22012G20KT P6SM BKN018 BKN030
     FM251800 27015G22KT P6SM SCT025
     FM252300 29008KT P6SM SKC=

USA.gov is the U.S. government's official web portal to all federal, state and local government web resources and services.